sensor_id;sensor_type;location;lat;lon;timestamp;P1;durP1;ratioP1;P2;durP2;ratioP2
51048;SDS011;37084;55.228;36.450;2023-06-26T00:00:46;11.95;;;6.72;;
51048;SDS011;37084;55.228;36.450;2023-06-26T00:03:48;14.07;;;7.32;;
51048;SDS011;37084;55.228;36.450;2023-06-26T00:06:49;15.20;;;7.57;;
51048;SDS011;37084;55.228;36.450;2023-06-26T00:09:51;13.32;;;6.80;;
51048;SDS011;37084;55.228;36.450;2023-06-26T00:12:53;13.60;;;6.80;;
51048;SDS011;37084;55.228;36.450;2023-06-26T00:15:55;12.13;;;6.57;;
51048;SDS011;37084;55.228;36.450;2023-06-26T00:18:56;14.23;;;7.38;;
51048;SDS011;37084;55.228;36.450;2023-06-26T00:21:59;14.25;;;7.00;;
51048;SDS011;37084;55.228;36.450;2023-06-26T00:25:00;10.60;;;7.25;;
51048;SDS011;37084;55.228;36.450;2023-06-26T00:28:04;15.98;;;8.10;;
51048;SDS011;37084;55.228;36.450;2023-06-26T00:31:05;13.27;;;7.57;;
51048;SDS011;37084;55.228;36.450;2023-06-26T00:34:06;12.82;;;7.78;;
51048;SDS011;37084;55.228;36.450;2023-06-26T00:37:08;15.60;;;7.43;;
51048;SDS011;37084;55.228;36.450;2023-06-26T00:40:09;13.50;;;8.00;;
51048;SDS011;37084;55.228;36.450;2023-06-26T00:43:11;12.10;;;7.38;;
51048;SDS011;37084;55.228;36.450;2023-06-26T00:46:13;12.85;;;7.45;;
51048;SDS011;37084;55.228;36.450;2023-06-26T00:49:15;15.68;;;7.43;;
51048;SDS011;37084;55.228;36.450;2023-06-26T00:52:17;11.00;;;6.50;;
51048;SDS011;37084;55.228;36.450;2023-06-26T00:55:18;9.40;;;6.18;;
51048;SDS011;37084;55.228;36.450;2023-06-26T00:58:21;14.60;;;7.10;;
51048;SDS011;37084;55.228;36.450;2023-06-26T01:01:25;15.70;;;7.15;;
51048;SDS011;37084;55.228;36.450;2023-06-26T01:04:26;14.48;;;7.28;;
51048;SDS011;37084;55.228;36.450;2023-06-26T01:07:28;12.15;;;6.25;;
51048;SDS011;37084;55.228;36.450;2023-06-26T01:10:30;12.40;;;7.80;;
51048;SDS011;37084;55.228;36.450;2023-06-26T01:13:32;12.55;;;6.90;;
51048;SDS011;37084;55.228;36.450;2023-06-26T01:16:34;13.45;;;6.82;;
51048;SDS011;37084;55.228;36.450;2023-06-26T01:19:36;13.00;;;7.72;;
51048;SDS011;37084;55.228;36.450;2023-06-26T01:29:16;11.43;;;6.35;;
51048;SDS011;37084;55.228;36.450;2023-06-26T01:32:18;14.05;;;7.85;;
51048;SDS011;37084;55.228;36.450;2023-06-26T01:35:20;11.20;;;6.25;;
51048;SDS011;37084;55.228;36.450;2023-06-26T01:38:22;12.70;;;6.65;;
51048;SDS011;37084;55.228;36.450;2023-06-26T01:41:26;12.25;;;7.07;;
51048;SDS011;37084;55.228;36.450;2023-06-26T01:44:28;12.93;;;7.22;;
51048;SDS011;37084;55.228;36.450;2023-06-26T01:47:30;12.02;;;7.32;;
51048;SDS011;37084;55.228;36.450;2023-06-26T01:50:34;13.50;;;7.40;;
51048;SDS011;37084;55.228;36.450;2023-06-26T01:53:38;15.25;;;7.43;;
51048;SDS011;37084;55.228;36.450;2023-06-26T01:56:42;12.60;;;7.50;;
51048;SDS011;37084;55.228;36.450;2023-06-26T01:59:46;12.88;;;7.65;;
51048;SDS011;37084;55.228;36.450;2023-06-26T02:02:48;11.75;;;7.07;;
51048;SDS011;37084;55.228;36.450;2023-06-26T02:05:49;12.38;;;7.40;;
51048;SDS011;37084;55.228;36.450;2023-06-26T02:08:51;14.82;;;7.65;;
51048;SDS011;37084;55.228;36.450;2023-06-26T02:11:53;14.63;;;7.53;;
51048;SDS011;37084;55.228;36.450;2023-06-26T02:14:54;14.32;;;7.80;;
51048;SDS011;37084;55.228;36.450;2023-06-26T02:17:59;18.45;;;8.00;;
51048;SDS011;37084;55.228;36.450;2023-06-26T02:21:02;14.48;;;7.28;;
51048;SDS011;37084;55.228;36.450;2023-06-26T02:24:05;13.57;;;6.72;;
51048;SDS011;37084;55.228;36.450;2023-06-26T02:27:07;14.40;;;7.43;;
51048;SDS011;37084;55.228;36.450;2023-06-26T02:30:10;14.63;;;7.70;;
51048;SDS011;37084;55.228;36.450;2023-06-26T02:33:11;12.50;;;7.22;;
51048;SDS011;37084;55.228;36.450;2023-06-26T02:36:13;13.55;;;7.35;;
51048;SDS011;37084;55.228;36.450;2023-06-26T02:39:14;10.88;;;6.90;;
51048;SDS011;37084;55.228;36.450;2023-06-26T02:42:16;10.85;;;6.47;;
51048;SDS011;37084;55.228;36.450;2023-06-26T02:45:18;12.25;;;6.95;;
51048;SDS011;37084;55.228;36.450;2023-06-26T02:48:19;12.57;;;7.03;;
51048;SDS011;37084;55.228;36.450;2023-06-26T02:51:20;11.57;;;6.88;;
51048;SDS011;37084;55.228;36.450;2023-06-26T02:54:22;12.80;;;7.15;;
51048;SDS011;37084;55.228;36.450;2023-06-26T02:57:28;10.93;;;6.60;;
51048;SDS011;37084;55.228;36.450;2023-06-26T03:00:30;12.80;;;7.35;;
51048;SDS011;37084;55.228;36.450;2023-06-26T03:03:33;13.65;;;7.07;;
51048;SDS011;37084;55.228;36.450;2023-06-26T03:06:42;12.80;;;6.90;;
51048;SDS011;37084;55.228;36.450;2023-06-26T03:09:43;12.23;;;6.85;;
51048;SDS011;37084;55.228;36.450;2023-06-26T03:12:46;12.30;;;6.82;;
51048;SDS011;37084;55.228;36.450;2023-06-26T03:15:47;13.45;;;7.00;;
51048;SDS011;37084;55.228;36.450;2023-06-26T03:18:49;12.60;;;7.57;;
51048;SDS011;37084;55.228;36.450;2023-06-26T03:21:50;13.23;;;7.30;;
51048;SDS011;37084;55.228;36.450;2023-06-26T03:24:52;11.32;;;7.22;;
51048;SDS011;37084;55.228;36.450;2023-06-26T03:27:53;12.50;;;6.78;;
51048;SDS011;37084;55.228;36.450;2023-06-26T03:30:54;12.82;;;7.25;;
51048;SDS011;37084;55.228;36.450;2023-06-26T03:33:56;13.85;;;7.07;;
51048;SDS011;37084;55.228;36.450;2023-06-26T03:36:57;11.95;;;7.00;;
51048;SDS011;37084;55.228;36.450;2023-06-26T03:39:58;15.55;;;7.40;;
51048;SDS011;37084;55.228;36.450;2023-06-26T03:42:59;11.35;;;6.28;;
51048;SDS011;37084;55.228;36.450;2023-06-26T03:46:01;13.02;;;7.05;;
51048;SDS011;37084;55.228;36.450;2023-06-26T03:49:02;12.77;;;6.55;;
51048;SDS011;37084;55.228;36.450;2023-06-26T03:52:04;12.77;;;7.18;;
51048;SDS011;37084;55.228;36.450;2023-06-26T03:55:06;12.98;;;6.95;;
51048;SDS011;37084;55.228;36.450;2023-06-26T03:58:07;13.35;;;7.47;;
51048;SDS011;37084;55.228;36.450;2023-06-26T04:01:08;14.15;;;7.22;;
51048;SDS011;37084;55.228;36.450;2023-06-26T04:04:10;12.82;;;7.50;;
51048;SDS011;37084;55.228;36.450;2023-06-26T04:07:11;12.55;;;7.75;;
51048;SDS011;37084;55.228;36.450;2023-06-26T04:10:12;11.93;;;7.35;;
51048;SDS011;37084;55.228;36.450;2023-06-26T04:13:14;12.93;;;7.50;;
51048;SDS011;37084;55.228;36.450;2023-06-26T04:16:15;12.10;;;7.40;;
51048;SDS011;37084;55.228;36.450;2023-06-26T04:19:16;12.68;;;7.40;;
51048;SDS011;37084;55.228;36.450;2023-06-26T04:22:17;12.63;;;7.28;;
51048;SDS011;37084;55.228;36.450;2023-06-26T04:25:19;11.82;;;7.07;;
51048;SDS011;37084;55.228;36.450;2023-06-26T04:28:20;10.75;;;7.00;;
51048;SDS011;37084;55.228;36.450;2023-06-26T04:31:21;12.57;;;7.18;;
51048;SDS011;37084;55.228;36.450;2023-06-26T04:34:27;11.90;;;7.00;;
51048;SDS011;37084;55.228;36.450;2023-06-26T04:37:28;13.75;;;7.72;;
51048;SDS011;37084;55.228;36.450;2023-06-26T04:40:29;11.57;;;7.43;;
51048;SDS011;37084;55.228;36.450;2023-06-26T04:43:30;14.63;;;6.97;;
51048;SDS011;37084;55.228;36.450;2023-06-26T04:46:32;11.07;;;7.05;;
51048;SDS011;37084;55.228;36.450;2023-06-26T04:49:33;10.30;;;6.95;;
51048;SDS011;37084;55.228;36.450;2023-06-26T04:52:35;9.80;;;6.55;;
51048;SDS011;37084;55.228;36.450;2023-06-26T04:55:36;11.80;;;7.43;;
51048;SDS011;37084;55.228;36.450;2023-06-26T04:58:37;12.25;;;7.05;;
51048;SDS011;37084;55.228;36.450;2023-06-26T05:01:39;10.25;;;6.28;;
51048;SDS011;37084;55.228;36.450;2023-06-26T05:04:40;10.10;;;6.13;;
51048;SDS011;37084;55.228;36.450;2023-06-26T05:07:43;11.95;;;7.20;;
51048;SDS011;37084;55.228;36.450;2023-06-26T05:10:44;11.43;;;6.93;;
51048;SDS011;37084;55.228;36.450;2023-06-26T05:13:46;9.63;;;6.72;;
51048;SDS011;37084;55.228;36.450;2023-06-26T05:16:47;10.63;;;6.85;;
51048;SDS011;37084;55.228;36.450;2023-06-26T05:19:49;8.68;;;6.22;;
51048;SDS011;37084;55.228;36.450;2023-06-26T05:22:50;14.00;;;6.10;;
51048;SDS011;37084;55.228;36.450;2023-06-26T05:25:52;9.13;;;5.95;;
51048;SDS011;37084;55.228;36.450;2023-06-26T05:28:54;11.45;;;7.43;;
51048;SDS011;37084;55.228;36.450;2023-06-26T05:31:56;10.18;;;6.72;;
51048;SDS011;37084;55.228;36.450;2023-06-26T05:34:57;11.85;;;6.75;;
51048;SDS011;37084;55.228;36.450;2023-06-26T05:37:59;11.85;;;7.32;;
51048;SDS011;37084;55.228;36.450;2023-06-26T05:41:01;13.52;;;7.00;;
51048;SDS011;37084;55.228;36.450;2023-06-26T05:44:02;12.50;;;7.60;;
51048;SDS011;37084;55.228;36.450;2023-06-26T05:47:04;11.07;;;7.68;;
51048;SDS011;37084;55.228;36.450;2023-06-26T05:50:06;13.35;;;7.68;;
51048;SDS011;37084;55.228;36.450;2023-06-26T05:53:09;12.20;;;7.82;;
51048;SDS011;37084;55.228;36.450;2023-06-26T05:56:11;12.88;;;7.80;;
51048;SDS011;37084;55.228;36.450;2023-06-26T05:59:12;11.95;;;7.63;;
51048;SDS011;37084;55.228;36.450;2023-06-26T06:02:15;11.77;;;8.07;;
51048;SDS011;37084;55.228;36.450;2023-06-26T06:05:17;11.82;;;8.43;;
51048;SDS011;37084;55.228;36.450;2023-06-26T06:08:18;10.23;;;7.90;;
51048;SDS011;37084;55.228;36.450;2023-06-26T06:11:20;13.10;;;8.73;;
51048;SDS011;37084;55.228;36.450;2023-06-26T06:14:21;11.32;;;8.80;;
51048;SDS011;37084;55.228;36.450;2023-06-26T06:17:23;12.45;;;8.38;;
51048;SDS011;37084;55.228;36.450;2023-06-26T06:20:24;13.82;;;9.55;;
51048;SDS011;37084;55.228;36.450;2023-06-26T06:23:28;12.43;;;8.93;;
51048;SDS011;37084;55.228;36.450;2023-06-26T06:26:29;14.52;;;10.25;;
51048;SDS011;37084;55.228;36.450;2023-06-26T06:29:31;14.57;;;10.13;;
51048;SDS011;37084;55.228;36.450;2023-06-26T06:32:32;12.90;;;9.02;;
51048;SDS011;37084;55.228;36.450;2023-06-26T06:35:34;14.25;;;10.18;;
51048;SDS011;37084;55.228;36.450;2023-06-26T06:38:35;14.20;;;10.05;;
51048;SDS011;37084;55.228;36.450;2023-06-26T06:41:37;15.23;;;9.57;;
51048;SDS011;37084;55.228;36.450;2023-06-26T06:44:40;13.68;;;9.50;;
51048;SDS011;37084;55.228;36.450;2023-06-26T06:47:41;12.68;;;9.55;;
51048;SDS011;37084;55.228;36.450;2023-06-26T06:50:43;15.85;;;9.18;;
51048;SDS011;37084;55.228;36.450;2023-06-26T06:53:45;11.27;;;8.43;;
51048;SDS011;37084;55.228;36.450;2023-06-26T06:56:46;11.07;;;8.77;;
51048;SDS011;37084;55.228;36.450;2023-06-26T06:59:47;11.38;;;7.53;;
51048;SDS011;37084;55.228;36.450;2023-06-26T07:02:49;9.10;;;7.10;;
51048;SDS011;37084;55.228;36.450;2023-06-26T07:05:51;10.35;;;7.90;;
51048;SDS011;37084;55.228;36.450;2023-06-26T07:08:53;11.38;;;6.97;;
51048;SDS011;37084;55.228;36.450;2023-06-26T07:11:54;9.27;;;6.95;;
51048;SDS011;37084;55.228;36.450;2023-06-26T07:14:56;11.63;;;6.10;;
51048;SDS011;37084;55.228;36.450;2023-06-26T07:17:58;8.57;;;5.22;;
51048;SDS011;37084;55.228;36.450;2023-06-26T07:20:59;6.75;;;5.10;;
51048;SDS011;37084;55.228;36.450;2023-06-26T07:24:01;8.30;;;4.97;;
51048;SDS011;37084;55.228;36.450;2023-06-26T07:27:02;6.72;;;5.18;;
51048;SDS011;37084;55.228;36.450;2023-06-26T07:30:04;6.90;;;4.80;;
51048;SDS011;37084;55.228;36.450;2023-06-26T07:33:06;9.15;;;4.90;;
51048;SDS011;37084;55.228;36.450;2023-06-26T07:36:08;6.85;;;4.80;;
51048;SDS011;37084;55.228;36.450;2023-06-26T07:39:11;7.05;;;5.10;;
51048;SDS011;37084;55.228;36.450;2023-06-26T07:45:17;7.88;;;5.38;;
51048;SDS011;37084;55.228;36.450;2023-06-26T07:48:18;8.25;;;5.30;;
51048;SDS011;37084;55.228;36.450;2023-06-26T07:51:22;9.45;;;5.57;;
51048;SDS011;37084;55.228;36.450;2023-06-26T07:54:24;7.10;;;5.10;;
51048;SDS011;37084;55.228;36.450;2023-06-26T07:57:25;6.80;;;5.40;;
51048;SDS011;37084;55.228;36.450;2023-06-26T08:00:28;6.28;;;5.00;;
51048;SDS011;37084;55.228;36.450;2023-06-26T08:03:30;6.85;;;5.18;;
51048;SDS011;37084;55.228;36.450;2023-06-26T08:06:31;6.63;;;5.28;;
51048;SDS011;37084;55.228;36.450;2023-06-26T08:09:33;7.32;;;5.32;;
51048;SDS011;37084;55.228;36.450;2023-06-26T08:12:36;8.40;;;5.78;;
51048;SDS011;37084;55.228;36.450;2023-06-26T08:15:41;7.63;;;5.28;;
51048;SDS011;37084;55.228;36.450;2023-06-26T08:18:42;6.60;;;5.13;;
51048;SDS011;37084;55.228;36.450;2023-06-26T08:21:44;6.22;;;4.90;;
51048;SDS011;37084;55.228;36.450;2023-06-26T08:24:46;6.30;;;4.97;;
51048;SDS011;37084;55.228;36.450;2023-06-26T08:27:57;6.40;;;4.88;;
51048;SDS011;37084;55.228;36.450;2023-06-26T08:31:00;8.68;;;5.38;;
51048;SDS011;37084;55.228;36.450;2023-06-26T08:34:02;7.97;;;5.60;;
51048;SDS011;37084;55.228;36.450;2023-06-26T08:37:04;7.90;;;5.50;;
51048;SDS011;37084;55.228;36.450;2023-06-26T08:40:10;6.55;;;5.32;;
51048;SDS011;37084;55.228;36.450;2023-06-26T08:43:13;7.10;;;5.20;;
51048;SDS011;37084;55.228;36.450;2023-06-26T08:46:14;5.65;;;4.95;;
51048;SDS011;37084;55.228;36.450;2023-06-26T08:49:27;6.43;;;5.43;;
51048;SDS011;37084;55.228;36.450;2023-06-26T08:52:33;6.97;;;5.47;;
51048;SDS011;37084;55.228;36.450;2023-06-26T08:55:38;6.38;;;5.05;;
51048;SDS011;37084;55.228;36.450;2023-06-26T08:58:42;6.82;;;5.40;;
51048;SDS011;37084;55.228;36.450;2023-06-26T09:01:46;6.95;;;5.30;;
51048;SDS011;37084;55.228;36.450;2023-06-26T09:04:48;7.75;;;5.53;;
51048;SDS011;37084;55.228;36.450;2023-06-26T09:07:52;6.65;;;5.47;;
51048;SDS011;37084;55.228;36.450;2023-06-26T09:13:57;5.82;;;5.03;;
51048;SDS011;37084;55.228;36.450;2023-06-26T09:17:01;6.90;;;4.95;;
51048;SDS011;37084;55.228;36.450;2023-06-26T09:20:04;5.78;;;5.15;;
51048;SDS011;37084;55.228;36.450;2023-06-26T09:23:05;7.85;;;5.30;;
51048;SDS011;37084;55.228;36.450;2023-06-26T09:26:11;7.88;;;5.22;;
51048;SDS011;37084;55.228;36.450;2023-06-26T09:29:13;6.93;;;5.18;;
51048;SDS011;37084;55.228;36.450;2023-06-26T09:32:16;6.55;;;5.40;;
51048;SDS011;37084;55.228;36.450;2023-06-26T09:35:19;7.60;;;5.13;;
51048;SDS011;37084;55.228;36.450;2023-06-26T09:38:20;6.60;;;5.47;;
51048;SDS011;37084;55.228;36.450;2023-06-26T09:41:23;6.97;;;5.00;;
51048;SDS011;37084;55.228;36.450;2023-06-26T09:44:28;5.90;;;5.00;;
51048;SDS011;37084;55.228;36.450;2023-06-26T09:50:35;5.93;;;4.97;;
51048;SDS011;37084;55.228;36.450;2023-06-26T09:53:41;6.43;;;5.35;;
51048;SDS011;37084;55.228;36.450;2023-06-26T09:56:43;6.47;;;5.00;;
51048;SDS011;37084;55.228;36.450;2023-06-26T09:59:45;8.63;;;4.63;;
51048;SDS011;37084;55.228;36.450;2023-06-26T10:02:46;5.07;;;4.57;;
51048;SDS011;37084;55.228;36.450;2023-06-26T10:05:48;6.63;;;5.07;;
51048;SDS011;37084;55.228;36.450;2023-06-26T10:08:54;7.07;;;5.10;;
51048;SDS011;37084;55.228;36.450;2023-06-26T10:12:03;6.05;;;5.00;;
51048;SDS011;37084;55.228;36.450;2023-06-26T10:15:15;5.78;;;4.95;;
51048;SDS011;37084;55.228;36.450;2023-06-26T10:18:18;8.10;;;4.78;;
51048;SDS011;37084;55.228;36.450;2023-06-26T10:21:24;7.95;;;4.65;;
51048;SDS011;37084;55.228;36.450;2023-06-26T10:24:28;6.40;;;4.78;;
51048;SDS011;37084;55.228;36.450;2023-06-26T10:27:33;8.35;;;5.13;;
51048;SDS011;37084;55.228;36.450;2023-06-26T10:30:38;9.82;;;5.65;;
51048;SDS011;37084;55.228;36.450;2023-06-26T10:33:43;8.00;;;5.45;;
51048;SDS011;37084;55.228;36.450;2023-06-26T10:36:45;8.93;;;5.25;;
51048;SDS011;37084;55.228;36.450;2023-06-26T10:39:50;6.50;;;4.90;;
51048;SDS011;37084;55.228;36.450;2023-06-26T10:43:06;6.28;;;5.20;;
51048;SDS011;37084;55.228;36.450;2023-06-26T10:46:11;6.50;;;5.10;;
51048;SDS011;37084;55.228;36.450;2023-06-26T10:49:13;6.78;;;4.78;;
51048;SDS011;37084;55.228;36.450;2023-06-26T10:52:16;5.93;;;4.50;;
51048;SDS011;37084;55.228;36.450;2023-06-26T10:55:17;7.03;;;4.65;;
51048;SDS011;37084;55.228;36.450;2023-06-26T10:58:50;7.43;;;4.90;;
51048;SDS011;37084;55.228;36.450;2023-06-26T11:05:07;6.28;;;4.70;;
51048;SDS011;37084;55.228;36.450;2023-06-26T11:08:09;6.78;;;5.38;;
51048;SDS011;37084;55.228;36.450;2023-06-26T11:11:13;8.15;;;4.63;;
51048;SDS011;37084;55.228;36.450;2023-06-26T11:14:17;7.50;;;5.15;;
51048;SDS011;37084;55.228;36.450;2023-06-26T11:17:27;5.95;;;4.65;;
51048;SDS011;37084;55.228;36.450;2023-06-26T11:20:30;10.15;;;5.05;;
51048;SDS011;37084;55.228;36.450;2023-06-26T11:23:33;5.50;;;4.78;;
51048;SDS011;37084;55.228;36.450;2023-06-26T11:26:42;7.03;;;5.20;;
51048;SDS011;37084;55.228;36.450;2023-06-26T11:29:48;6.78;;;5.30;;
51048;SDS011;37084;55.228;36.450;2023-06-26T11:32:52;6.63;;;4.57;;
51048;SDS011;37084;55.228;36.450;2023-06-26T11:35:56;4.88;;;4.32;;
51048;SDS011;37084;55.228;36.450;2023-06-26T11:39:09;6.53;;;4.82;;
51048;SDS011;37084;55.228;36.450;2023-06-26T11:42:14;6.32;;;4.68;;
51048;SDS011;37084;55.228;36.450;2023-06-26T11:45:15;6.88;;;4.78;;
51048;SDS011;37084;55.228;36.450;2023-06-26T11:48:16;7.60;;;4.82;;
51048;SDS011;37084;55.228;36.450;2023-06-26T11:51:20;5.95;;;4.28;;
51048;SDS011;37084;55.228;36.450;2023-06-26T11:54:27;6.65;;;3.97;;
51048;SDS011;37084;55.228;36.450;2023-06-26T11:57:31;5.82;;;4.25;;
51048;SDS011;37084;55.228;36.450;2023-06-26T12:00:35;6.32;;;4.55;;
51048;SDS011;37084;55.228;36.450;2023-06-26T12:03:42;5.43;;;4.28;;
51048;SDS011;37084;55.228;36.450;2023-06-26T12:06:46;7.38;;;4.85;;
51048;SDS011;37084;55.228;36.450;2023-06-26T12:09:50;7.47;;;4.10;;
51048;SDS011;37084;55.228;36.450;2023-06-26T12:15:59;7.38;;;5.35;;
51048;SDS011;37084;55.228;36.450;2023-06-26T12:19:02;7.68;;;5.03;;
51048;SDS011;37084;55.228;36.450;2023-06-26T12:22:06;10.60;;;5.13;;
51048;SDS011;37084;55.228;36.450;2023-06-26T12:25:08;8.20;;;5.10;;
51048;SDS011;37084;55.228;36.450;2023-06-26T12:28:16;7.20;;;5.13;;
51048;SDS011;37084;55.228;36.450;2023-06-26T12:31:20;7.10;;;4.97;;
51048;SDS011;37084;55.228;36.450;2023-06-26T12:34:27;7.60;;;5.15;;
51048;SDS011;37084;55.228;36.450;2023-06-26T12:37:38;6.72;;;5.10;;
51048;SDS011;37084;55.228;36.450;2023-06-26T12:40:45;7.00;;;5.35;;
51048;SDS011;37084;55.228;36.450;2023-06-26T12:43:47;7.50;;;4.93;;
51048;SDS011;37084;55.228;36.450;2023-06-26T12:46:49;6.40;;;5.32;;
51048;SDS011;37084;55.228;36.450;2023-06-26T12:49:53;5.75;;;4.82;;
51048;SDS011;37084;55.228;36.450;2023-06-26T12:52:59;6.53;;;4.88;;
51048;SDS011;37084;55.228;36.450;2023-06-26T12:56:06;8.50;;;5.05;;
51048;SDS011;37084;55.228;36.450;2023-06-26T12:59:12;3.90;;;2.45;;
51048;SDS011;37084;55.228;36.450;2023-06-26T13:02:16;3.38;;;2.20;;
51048;SDS011;37084;55.228;36.450;2023-06-26T13:05:22;4.55;;;3.30;;
51048;SDS011;37084;55.228;36.450;2023-06-26T13:08:24;4.47;;;3.05;;
51048;SDS011;37084;55.228;36.450;2023-06-26T13:11:27;4.45;;;3.00;;
51048;SDS011;37084;55.228;36.450;2023-06-26T13:14:30;5.40;;;3.47;;
51048;SDS011;37084;55.228;36.450;2023-06-26T13:17:32;5.72;;;3.63;;
51048;SDS011;37084;55.228;36.450;2023-06-26T13:20:33;5.72;;;3.92;;
51048;SDS011;37084;55.228;36.450;2023-06-26T13:23:37;3.85;;;3.30;;
51048;SDS011;37084;55.228;36.450;2023-06-26T13:26:42;5.07;;;3.25;;
51048;SDS011;37084;55.228;36.450;2023-06-26T13:29:45;4.68;;;3.65;;
51048;SDS011;37084;55.228;36.450;2023-06-26T13:32:47;5.25;;;3.60;;
51048;SDS011;37084;55.228;36.450;2023-06-26T13:35:50;7.85;;;3.58;;
51048;SDS011;37084;55.228;36.450;2023-06-26T13:38:53;4.18;;;3.40;;
51048;SDS011;37084;55.228;36.450;2023-06-26T13:41:59;7.13;;;4.10;;
51048;SDS011;37084;55.228;36.450;2023-06-26T13:45:02;6.78;;;3.83;;
51048;SDS011;37084;55.228;36.450;2023-06-26T13:48:11;7.70;;;4.47;;
51048;SDS011;37084;55.228;36.450;2023-06-26T13:51:15;10.60;;;4.20;;
51048;SDS011;37084;55.228;36.450;2023-06-26T13:54:17;5.78;;;3.72;;
51048;SDS011;37084;55.228;36.450;2023-06-26T13:57:19;6.90;;;4.40;;
51048;SDS011;37084;55.228;36.450;2023-06-26T14:00:23;10.35;;;4.65;;
51048;SDS011;37084;55.228;36.450;2023-06-26T14:03:26;6.85;;;4.90;;
51048;SDS011;37084;55.228;36.450;2023-06-26T14:06:30;7.22;;;4.97;;
51048;SDS011;37084;55.228;36.450;2023-06-26T14:09:35;8.77;;;5.32;;
51048;SDS011;37084;55.228;36.450;2023-06-26T14:12:38;7.88;;;5.10;;
51048;SDS011;37084;55.228;36.450;2023-06-26T14:15:39;6.65;;;4.88;;
51048;SDS011;37084;55.228;36.450;2023-06-26T14:18:40;7.82;;;5.40;;
51048;SDS011;37084;55.228;36.450;2023-06-26T14:21:42;6.55;;;4.63;;
51048;SDS011;37084;55.228;36.450;2023-06-26T14:24:44;9.30;;;5.90;;
51048;SDS011;37084;55.228;36.450;2023-06-26T14:27:45;9.48;;;5.32;;
51048;SDS011;37084;55.228;36.450;2023-06-26T14:30:47;11.05;;;5.35;;
51048;SDS011;37084;55.228;36.450;2023-06-26T14:33:49;7.80;;;5.43;;
51048;SDS011;37084;55.228;36.450;2023-06-26T14:36:51;9.25;;;5.95;;
51048;SDS011;37084;55.228;36.450;2023-06-26T14:39:52;10.70;;;5.80;;
51048;SDS011;37084;55.228;36.450;2023-06-26T14:42:53;10.68;;;5.85;;
51048;SDS011;37084;55.228;36.450;2023-06-26T14:45:56;8.82;;;5.72;;
51048;SDS011;37084;55.228;36.450;2023-06-26T14:48:57;8.82;;;6.10;;
51048;SDS011;37084;55.228;36.450;2023-06-26T14:51:59;8.55;;;6.07;;
51048;SDS011;37084;55.228;36.450;2023-06-26T14:55:00;10.25;;;5.97;;
51048;SDS011;37084;55.228;36.450;2023-06-26T14:58:05;11.35;;;6.25;;
51048;SDS011;37084;55.228;36.450;2023-06-26T15:01:06;10.18;;;6.75;;
51048;SDS011;37084;55.228;36.450;2023-06-26T15:04:08;10.00;;;6.65;;
51048;SDS011;37084;55.228;36.450;2023-06-26T15:07:11;11.75;;;5.43;;
51048;SDS011;37084;55.228;36.450;2023-06-26T15:10:14;9.10;;;5.53;;
51048;SDS011;37084;55.228;36.450;2023-06-26T15:13:16;7.95;;;5.93;;
51048;SDS011;37084;55.228;36.450;2023-06-26T15:16:18;7.63;;;5.38;;
51048;SDS011;37084;55.228;36.450;2023-06-26T15:19:22;9.80;;;6.32;;
51048;SDS011;37084;55.228;36.450;2023-06-26T15:22:25;11.35;;;6.72;;
51048;SDS011;37084;55.228;36.450;2023-06-26T15:25:30;10.77;;;6.40;;
51048;SDS011;37084;55.228;36.450;2023-06-26T15:28:35;9.55;;;6.15;;
51048;SDS011;37084;55.228;36.450;2023-06-26T15:31:36;7.95;;;5.05;;
51048;SDS011;37084;55.228;36.450;2023-06-26T15:34:37;7.90;;;4.75;;
51048;SDS011;37084;55.228;36.450;2023-06-26T15:37:42;8.40;;;5.90;;
51048;SDS011;37084;55.228;36.450;2023-06-26T15:40:45;7.93;;;4.95;;
51048;SDS011;37084;55.228;36.450;2023-06-26T15:43:49;8.57;;;5.50;;
51048;SDS011;37084;55.228;36.450;2023-06-26T15:46:52;8.02;;;5.22;;
51048;SDS011;37084;55.228;36.450;2023-06-26T15:49:54;9.18;;;5.85;;
51048;SDS011;37084;55.228;36.450;2023-06-26T15:52:56;9.68;;;5.70;;
51048;SDS011;37084;55.228;36.450;2023-06-26T15:55:58;10.15;;;6.63;;
51048;SDS011;37084;55.228;36.450;2023-06-26T15:59:00;11.50;;;6.72;;
51048;SDS011;37084;55.228;36.450;2023-06-26T16:02:03;12.15;;;7.07;;
51048;SDS011;37084;55.228;36.450;2023-06-26T16:05:06;11.07;;;7.10;;
51048;SDS011;37084;55.228;36.450;2023-06-26T16:08:09;11.98;;;7.18;;
51048;SDS011;37084;55.228;36.450;2023-06-26T16:11:13;12.20;;;7.13;;
51048;SDS011;37084;55.228;36.450;2023-06-26T16:14:15;9.85;;;6.18;;
51048;SDS011;37084;55.228;36.450;2023-06-26T16:17:19;8.48;;;5.53;;
51048;SDS011;37084;55.228;36.450;2023-06-26T16:20:25;8.50;;;5.22;;
51048;SDS011;37084;55.228;36.450;2023-06-26T16:26:37;11.30;;;5.47;;
51048;SDS011;37084;55.228;36.450;2023-06-26T16:29:40;7.18;;;5.47;;
51048;SDS011;37084;55.228;36.450;2023-06-26T16:32:41;7.95;;;5.43;;
51048;SDS011;37084;55.228;36.450;2023-06-26T16:35:43;9.32;;;6.45;;
51048;SDS011;37084;55.228;36.450;2023-06-26T16:38:51;8.20;;;5.53;;
51048;SDS011;37084;55.228;36.450;2023-06-26T16:42:00;13.65;;;6.35;;
51048;SDS011;37084;55.228;36.450;2023-06-26T16:45:02;10.75;;;6.07;;
51048;SDS011;37084;55.228;36.450;2023-06-26T16:48:06;10.27;;;7.05;;
51048;SDS011;37084;55.228;36.450;2023-06-26T16:51:08;8.48;;;5.72;;
51048;SDS011;37084;55.228;36.450;2023-06-26T16:54:15;11.15;;;5.95;;
51048;SDS011;37084;55.228;36.450;2023-06-26T16:57:16;9.77;;;5.57;;
51048;SDS011;37084;55.228;36.450;2023-06-26T17:00:18;9.00;;;5.63;;
51048;SDS011;37084;55.228;36.450;2023-06-26T17:03:21;10.70;;;5.80;;
51048;SDS011;37084;55.228;36.450;2023-06-26T17:06:24;12.35;;;7.93;;
51048;SDS011;37084;55.228;36.450;2023-06-26T17:09:25;11.40;;;7.80;;
51048;SDS011;37084;55.228;36.450;2023-06-26T17:12:28;15.77;;;11.00;;
51048;SDS011;37084;55.228;36.450;2023-06-26T17:15:31;19.27;;;10.43;;
51048;SDS011;37084;55.228;36.450;2023-06-26T17:18:34;16.20;;;7.75;;
51048;SDS011;37084;55.228;36.450;2023-06-26T17:21:36;11.60;;;6.60;;
51048;SDS011;37084;55.228;36.450;2023-06-26T17:24:40;9.07;;;6.00;;
51048;SDS011;37084;55.228;36.450;2023-06-26T17:27:42;18.20;;;11.88;;
51048;SDS011;37084;55.228;36.450;2023-06-26T17:30:43;20.58;;;14.02;;
51048;SDS011;37084;55.228;36.450;2023-06-26T17:33:47;13.38;;;8.30;;
51048;SDS011;37084;55.228;36.450;2023-06-26T17:36:49;12.18;;;7.65;;
51048;SDS011;37084;55.228;36.450;2023-06-26T17:39:51;13.52;;;9.77;;
51048;SDS011;37084;55.228;36.450;2023-06-26T17:42:56;14.15;;;8.13;;
51048;SDS011;37084;55.228;36.450;2023-06-26T17:45:57;11.75;;;7.82;;
51048;SDS011;37084;55.228;36.450;2023-06-26T17:49:01;14.27;;;8.05;;
51048;SDS011;37084;55.228;36.450;2023-06-26T17:52:03;13.48;;;7.57;;
51048;SDS011;37084;55.228;36.450;2023-06-26T17:55:05;9.70;;;7.00;;
51048;SDS011;37084;55.228;36.450;2023-06-26T17:58:10;13.70;;;8.05;;
51048;SDS011;37084;55.228;36.450;2023-06-26T18:01:13;13.52;;;8.27;;
51048;SDS011;37084;55.228;36.450;2023-06-26T18:04:17;23.65;;;12.75;;
51048;SDS011;37084;55.228;36.450;2023-06-26T18:07:21;41.40;;;20.70;;
51048;SDS011;37084;55.228;36.450;2023-06-26T18:10:24;14.95;;;9.57;;
51048;SDS011;37084;55.228;36.450;2023-06-26T18:13:25;13.55;;;8.30;;
51048;SDS011;37084;55.228;36.450;2023-06-26T18:16:29;31.23;;;17.80;;
51048;SDS011;37084;55.228;36.450;2023-06-26T18:19:33;10.48;;;7.20;;
51048;SDS011;37084;55.228;36.450;2023-06-26T18:22:36;12.55;;;7.47;;